sensor_id;sensor_type;location;lat;lon;timestamp;P1;durP1;ratioP1;P2;durP2;ratioP2
27977;SDS011;15314;49.248;6.968;2023-04-27T00:00:35;10.70;;;9.70;;
27977;SDS011;15314;49.248;6.968;2023-04-27T00:01:36;10.15;;;9.30;;
27977;SDS011;15314;49.248;6.968;2023-04-27T00:02:37;13.10;;;9.52;;
27977;SDS011;15314;49.248;6.968;2023-04-27T00:03:38;11.15;;;9.45;;
27977;SDS011;15314;49.248;6.968;2023-04-27T00:04:40;10.15;;;9.27;;
27977;SDS011;15314;49.248;6.968;2023-04-27T00:05:41;11.65;;;10.48;;
27977;SDS011;15314;49.248;6.968;2023-04-27T00:06:43;13.45;;;9.23;;
27977;SDS011;15314;49.248;6.968;2023-04-27T00:07:43;10.32;;;9.35;;
27977;SDS011;15314;49.248;6.968;2023-04-27T00:08:44;11.68;;;9.85;;
27977;SDS011;15314;49.248;6.968;2023-04-27T00:09:45;12.55;;;10.18;;
27977;SDS011;15314;49.248;6.968;2023-04-27T00:10:45;12.57;;;10.45;;
27977;SDS011;15314;49.248;6.968;2023-04-27T00:11:46;10.63;;;9.65;;
27977;SDS011;15314;49.248;6.968;2023-04-27T00:12:46;11.02;;;9.63;;
27977;SDS011;15314;49.248;6.968;2023-04-27T00:13:47;11.02;;;9.15;;
27977;SDS011;15314;49.248;6.968;2023-04-27T00:14:48;10.80;;;9.70;;
27977;SDS011;15314;49.248;6.968;2023-04-27T00:15:48;11.45;;;10.20;;
27977;SDS011;15314;49.248;6.968;2023-04-27T00:16:49;11.95;;;8.88;;
27977;SDS011;15314;49.248;6.968;2023-04-27T00:17:50;10.65;;;9.52;;
27977;SDS011;15314;49.248;6.968;2023-04-27T00:18:50;10.45;;;9.35;;
27977;SDS011;15314;49.248;6.968;2023-04-27T00:19:52;9.55;;;8.65;;
27977;SDS011;15314;49.248;6.968;2023-04-27T00:20:53;10.23;;;9.25;;
27977;SDS011;15314;49.248;6.968;2023-04-27T00:21:54;9.88;;;8.68;;
27977;SDS011;15314;49.248;6.968;2023-04-27T00:22:56;11.57;;;8.80;;
27977;SDS011;15314;49.248;6.968;2023-04-27T00:23:57;9.60;;;8.80;;
27977;SDS011;15314;49.248;6.968;2023-04-27T00:24:58;9.70;;;8.63;;
27977;SDS011;15314;49.248;6.968;2023-04-27T00:25:58;11.60;;;8.85;;
27977;SDS011;15314;49.248;6.968;2023-04-27T00:26:59;9.75;;;8.85;;
27977;SDS011;15314;49.248;6.968;2023-04-27T00:28:00;9.88;;;8.52;;
27977;SDS011;15314;49.248;6.968;2023-04-27T00:29:01;9.20;;;8.20;;
27977;SDS011;15314;49.248;6.968;2023-04-27T00:30:02;9.85;;;8.27;;
27977;SDS011;15314;49.248;6.968;2023-04-27T00:31:03;9.45;;;8.55;;
27977;SDS011;15314;49.248;6.968;2023-04-27T00:32:04;8.77;;;7.97;;
27977;SDS011;15314;49.248;6.968;2023-04-27T00:33:06;9.32;;;8.32;;
27977;SDS011;15314;49.248;6.968;2023-04-27T00:34:07;10.45;;;9.15;;
27977;SDS011;15314;49.248;6.968;2023-04-27T00:35:07;12.35;;;8.90;;
27977;SDS011;15314;49.248;6.968;2023-04-27T00:36:09;9.13;;;8.27;;
27977;SDS011;15314;49.248;6.968;2023-04-27T00:37:09;11.88;;;9.13;;
27977;SDS011;15314;49.248;6.968;2023-04-27T00:38:10;9.63;;;8.48;;
27977;SDS011;15314;49.248;6.968;2023-04-27T00:39:12;9.05;;;8.20;;
27977;SDS011;15314;49.248;6.968;2023-04-27T00:40:13;9.40;;;8.48;;
27977;SDS011;15314;49.248;6.968;2023-04-27T00:41:13;8.80;;;8.02;;
27977;SDS011;15314;49.248;6.968;2023-04-27T00:42:14;11.95;;;9.70;;
27977;SDS011;15314;49.248;6.968;2023-04-27T00:43:18;9.98;;;8.95;;
27977;SDS011;15314;49.248;6.968;2023-04-27T00:44:24;9.63;;;8.65;;
27977;SDS011;15314;49.248;6.968;2023-04-27T00:45:26;9.40;;;8.07;;
27977;SDS011;15314;49.248;6.968;2023-04-27T00:46:26;11.15;;;8.40;;
27977;SDS011;15314;49.248;6.968;2023-04-27T00:47:28;11.35;;;8.27;;
27977;SDS011;15314;49.248;6.968;2023-04-27T00:48:29;8.55;;;7.90;;
27977;SDS011;15314;49.248;6.968;2023-04-27T00:49:30;9.38;;;8.48;;
27977;SDS011;15314;49.248;6.968;2023-04-27T00:50:31;9.63;;;8.73;;
27977;SDS011;15314;49.248;6.968;2023-04-27T00:51:32;10.30;;;8.52;;
27977;SDS011;15314;49.248;6.968;2023-04-27T00:52:37;9.07;;;8.30;;
27977;SDS011;15314;49.248;6.968;2023-04-27T00:53:38;9.32;;;8.35;;
27977;SDS011;15314;49.248;6.968;2023-04-27T00:54:39;9.27;;;8.10;;
27977;SDS011;15314;49.248;6.968;2023-04-27T00:55:40;9.65;;;8.23;;
27977;SDS011;15314;49.248;6.968;2023-04-27T00:56:40;11.98;;;9.32;;
27977;SDS011;15314;49.248;6.968;2023-04-27T00:57:41;9.38;;;7.80;;
27977;SDS011;15314;49.248;6.968;2023-04-27T00:58:42;8.88;;;8.18;;
27977;SDS011;15314;49.248;6.968;2023-04-27T00:59:42;8.57;;;7.85;;
27977;SDS011;15314;49.248;6.968;2023-04-27T01:00:43;10.20;;;8.32;;
27977;SDS011;15314;49.248;6.968;2023-04-27T01:01:47;8.60;;;8.02;;
27977;SDS011;15314;49.248;6.968;2023-04-27T01:02:48;8.73;;;7.88;;
27977;SDS011;15314;49.248;6.968;2023-04-27T01:03:51;9.15;;;8.05;;
27977;SDS011;15314;49.248;6.968;2023-04-27T01:04:52;8.90;;;8.00;;
27977;SDS011;15314;49.248;6.968;2023-04-27T01:05:53;9.18;;;7.95;;
27977;SDS011;15314;49.248;6.968;2023-04-27T01:06:55;9.70;;;8.32;;
27977;SDS011;15314;49.248;6.968;2023-04-27T01:07:56;13.02;;;8.40;;
27977;SDS011;15314;49.248;6.968;2023-04-27T01:08:57;9.75;;;8.15;;
27977;SDS011;15314;49.248;6.968;2023-04-27T01:09:57;10.70;;;8.55;;
27977;SDS011;15314;49.248;6.968;2023-04-27T01:10:58;11.70;;;8.30;;
27977;SDS011;15314;49.248;6.968;2023-04-27T01:11:59;10.82;;;8.80;;
27977;SDS011;15314;49.248;6.968;2023-04-27T01:13:00;12.10;;;8.38;;
27977;SDS011;15314;49.248;6.968;2023-04-27T01:14:02;10.32;;;8.30;;
27977;SDS011;15314;49.248;6.968;2023-04-27T01:15:04;11.02;;;9.27;;
27977;SDS011;15314;49.248;6.968;2023-04-27T01:16:06;12.35;;;8.90;;
27977;SDS011;15314;49.248;6.968;2023-04-27T01:17:07;12.38;;;8.68;;
27977;SDS011;15314;49.248;6.968;2023-04-27T01:18:08;8.77;;;7.90;;
27977;SDS011;15314;49.248;6.968;2023-04-27T01:19:08;9.75;;;8.73;;
27977;SDS011;15314;49.248;6.968;2023-04-27T01:20:09;9.77;;;8.43;;
27977;SDS011;15314;49.248;6.968;2023-04-27T01:21:10;9.82;;;8.82;;
27977;SDS011;15314;49.248;6.968;2023-04-27T01:22:11;12.68;;;9.18;;
27977;SDS011;15314;49.248;6.968;2023-04-27T01:23:14;12.02;;;8.70;;
27977;SDS011;15314;49.248;6.968;2023-04-27T01:24:15;11.55;;;8.77;;
27977;SDS011;15314;49.248;6.968;2023-04-27T01:25:16;10.00;;;8.32;;
27977;SDS011;15314;49.248;6.968;2023-04-27T01:26:16;10.43;;;8.77;;
27977;SDS011;15314;49.248;6.968;2023-04-27T01:27:17;11.45;;;8.90;;
27977;SDS011;15314;49.248;6.968;2023-04-27T01:28:18;9.10;;;8.23;;
27977;SDS011;15314;49.248;6.968;2023-04-27T01:29:18;13.13;;;8.52;;
27977;SDS011;15314;49.248;6.968;2023-04-27T01:30:20;9.13;;;8.32;;
27977;SDS011;15314;49.248;6.968;2023-04-27T01:31:24;10.93;;;8.45;;
27977;SDS011;15314;49.248;6.968;2023-04-27T01:32:24;9.80;;;9.00;;
27977;SDS011;15314;49.248;6.968;2023-04-27T01:33:25;9.45;;;8.55;;
27977;SDS011;15314;49.248;6.968;2023-04-27T01:34:26;10.02;;;9.10;;
27977;SDS011;15314;49.248;6.968;2023-04-27T01:35:27;14.85;;;8.40;;
27977;SDS011;15314;49.248;6.968;2023-04-27T01:36:27;9.95;;;8.50;;
27977;SDS011;15314;49.248;6.968;2023-04-27T01:37:28;9.38;;;8.57;;
27977;SDS011;15314;49.248;6.968;2023-04-27T01:38:29;9.75;;;8.82;;
27977;SDS011;15314;49.248;6.968;2023-04-27T01:39:31;10.30;;;9.30;;
27977;SDS011;15314;49.248;6.968;2023-04-27T01:40:32;9.88;;;8.82;;
27977;SDS011;15314;49.248;6.968;2023-04-27T01:41:32;10.15;;;9.23;;
27977;SDS011;15314;49.248;6.968;2023-04-27T01:42:33;10.52;;;8.85;;
27977;SDS011;15314;49.248;6.968;2023-04-27T01:43:34;10.10;;;9.02;;
27977;SDS011;15314;49.248;6.968;2023-04-27T01:44:38;10.38;;;9.30;;
27977;SDS011;15314;49.248;6.968;2023-04-27T01:45:38;9.75;;;8.88;;
27977;SDS011;15314;49.248;6.968;2023-04-27T01:46:39;11.15;;;9.23;;
27977;SDS011;15314;49.248;6.968;2023-04-27T01:47:40;9.25;;;8.40;;
27977;SDS011;15314;49.248;6.968;2023-04-27T01:48:41;9.50;;;8.70;;
27977;SDS011;15314;49.248;6.968;2023-04-27T01:49:41;9.52;;;8.55;;
27977;SDS011;15314;49.248;6.968;2023-04-27T01:50:42;9.48;;;8.52;;
27977;SDS011;15314;49.248;6.968;2023-04-27T01:51:43;13.52;;;9.18;;
27977;SDS011;15314;49.248;6.968;2023-04-27T01:52:44;8.63;;;7.97;;
27977;SDS011;15314;49.248;6.968;2023-04-27T01:53:45;9.40;;;8.48;;
27977;SDS011;15314;49.248;6.968;2023-04-27T01:54:45;9.30;;;8.38;;
27977;SDS011;15314;49.248;6.968;2023-04-27T01:55:46;9.38;;;8.57;;
27977;SDS011;15314;49.248;6.968;2023-04-27T01:56:46;8.90;;;8.13;;
27977;SDS011;15314;49.248;6.968;2023-04-27T01:57:47;9.38;;;8.40;;
27977;SDS011;15314;49.248;6.968;2023-04-27T01:58:48;8.73;;;8.13;;
27977;SDS011;15314;49.248;6.968;2023-04-27T01:59:48;8.80;;;7.97;;
27977;SDS011;15314;49.248;6.968;2023-04-27T02:00:49;9.60;;;7.97;;
27977;SDS011;15314;49.248;6.968;2023-04-27T02:01:50;9.82;;;8.93;;
27977;SDS011;15314;49.248;6.968;2023-04-27T02:02:50;9.60;;;8.05;;
27977;SDS011;15314;49.248;6.968;2023-04-27T02:03:52;9.98;;;9.07;;
27977;SDS011;15314;49.248;6.968;2023-04-27T02:04:53;11.55;;;8.18;;
27977;SDS011;15314;49.248;6.968;2023-04-27T02:05:53;9.02;;;8.32;;
27977;SDS011;15314;49.248;6.968;2023-04-27T02:06:54;9.32;;;8.50;;
27977;SDS011;15314;49.248;6.968;2023-04-27T02:07:55;9.07;;;8.32;;
27977;SDS011;15314;49.248;6.968;2023-04-27T02:08:55;9.30;;;8.57;;
27977;SDS011;15314;49.248;6.968;2023-04-27T02:09:56;9.25;;;8.50;;
27977;SDS011;15314;49.248;6.968;2023-04-27T02:10:56;8.73;;;8.00;;
27977;SDS011;15314;49.248;6.968;2023-04-27T02:11:57;9.25;;;8.38;;
27977;SDS011;15314;49.248;6.968;2023-04-27T02:12:58;9.90;;;8.75;;
27977;SDS011;15314;49.248;6.968;2023-04-27T02:13:58;10.23;;;8.85;;
27977;SDS011;15314;49.248;6.968;2023-04-27T02:15:00;8.93;;;8.18;;
27977;SDS011;15314;49.248;6.968;2023-04-27T02:16:02;10.20;;;8.77;;
27977;SDS011;15314;49.248;6.968;2023-04-27T02:17:03;10.93;;;8.10;;
27977;SDS011;15314;49.248;6.968;2023-04-27T02:18:05;9.25;;;8.35;;
27977;SDS011;15314;49.248;6.968;2023-04-27T02:19:05;11.40;;;8.30;;
27977;SDS011;15314;49.248;6.968;2023-04-27T02:20:06;10.25;;;8.50;;
27977;SDS011;15314;49.248;6.968;2023-04-27T02:21:08;9.60;;;8.63;;
27977;SDS011;15314;49.248;6.968;2023-04-27T02:22:09;10.95;;;8.18;;
27977;SDS011;15314;49.248;6.968;2023-04-27T02:23:10;9.07;;;8.23;;
27977;SDS011;15314;49.248;6.968;2023-04-27T02:24:10;9.70;;;8.85;;
27977;SDS011;15314;49.248;6.968;2023-04-27T02:25:11;9.13;;;8.23;;
27977;SDS011;15314;49.248;6.968;2023-04-27T02:26:16;9.45;;;8.45;;
27977;SDS011;15314;49.248;6.968;2023-04-27T02:27:18;10.15;;;8.60;;
27977;SDS011;15314;49.248;6.968;2023-04-27T02:28:18;10.70;;;8.73;;
27977;SDS011;15314;49.248;6.968;2023-04-27T02:29:19;9.65;;;8.75;;
27977;SDS011;15314;49.248;6.968;2023-04-27T02:30:20;12.65;;;8.85;;
27977;SDS011;15314;49.248;6.968;2023-04-27T02:31:20;9.38;;;8.45;;
27977;SDS011;15314;49.248;6.968;2023-04-27T02:32:21;9.60;;;8.70;;
27977;SDS011;15314;49.248;6.968;2023-04-27T02:33:22;9.70;;;8.70;;
27977;SDS011;15314;49.248;6.968;2023-04-27T02:34:22;8.40;;;7.70;;
27977;SDS011;15314;49.248;6.968;2023-04-27T02:35:23;8.40;;;7.80;;
27977;SDS011;15314;49.248;6.968;2023-04-27T02:36:24;13.93;;;8.70;;
27977;SDS011;15314;49.248;6.968;2023-04-27T02:37:24;13.25;;;9.05;;
27977;SDS011;15314;49.248;6.968;2023-04-27T02:38:25;10.45;;;9.45;;
27977;SDS011;15314;49.248;6.968;2023-04-27T02:39:28;9.93;;;8.90;;
27977;SDS011;15314;49.248;6.968;2023-04-27T02:40:28;10.98;;;8.77;;
27977;SDS011;15314;49.248;6.968;2023-04-27T02:41:32;10.07;;;9.13;;
27977;SDS011;15314;49.248;6.968;2023-04-27T02:42:32;9.93;;;8.60;;
27977;SDS011;15314;49.248;6.968;2023-04-27T02:43:33;10.25;;;8.80;;
27977;SDS011;15314;49.248;6.968;2023-04-27T02:44:34;10.02;;;9.05;;
27977;SDS011;15314;49.248;6.968;2023-04-27T02:45:37;9.60;;;8.63;;
27977;SDS011;15314;49.248;6.968;2023-04-27T02:46:38;9.48;;;8.57;;
27977;SDS011;15314;49.248;6.968;2023-04-27T02:47:38;11.15;;;9.32;;
27977;SDS011;15314;49.248;6.968;2023-04-27T02:48:39;10.00;;;8.82;;
27977;SDS011;15314;49.248;6.968;2023-04-27T02:49:40;10.52;;;9.48;;
27977;SDS011;15314;49.248;6.968;2023-04-27T02:50:41;9.43;;;8.57;;
27977;SDS011;15314;49.248;6.968;2023-04-27T02:51:42;10.15;;;9.15;;
27977;SDS011;15314;49.248;6.968;2023-04-27T02:52:42;10.88;;;9.50;;
27977;SDS011;15314;49.248;6.968;2023-04-27T02:53:43;10.32;;;9.40;;
27977;SDS011;15314;49.248;6.968;2023-04-27T02:54:44;11.57;;;9.50;;
27977;SDS011;15314;49.248;6.968;2023-04-27T02:55:45;10.27;;;9.38;;
27977;SDS011;15314;49.248;6.968;2023-04-27T02:56:48;10.50;;;9.60;;
27977;SDS011;15314;49.248;6.968;2023-04-27T02:57:49;10.18;;;9.18;;
27977;SDS011;15314;49.248;6.968;2023-04-27T02:58:50;9.45;;;8.25;;
27977;SDS011;15314;49.248;6.968;2023-04-27T02:59:51;9.88;;;8.95;;
27977;SDS011;15314;49.248;6.968;2023-04-27T03:00:52;11.18;;;9.10;;
27977;SDS011;15314;49.248;6.968;2023-04-27T03:01:56;9.73;;;8.80;;
27977;SDS011;15314;49.248;6.968;2023-04-27T03:02:57;11.20;;;9.02;;
27977;SDS011;15314;49.248;6.968;2023-04-27T03:03:57;11.98;;;9.32;;
27977;SDS011;15314;49.248;6.968;2023-04-27T03:04:58;9.95;;;9.10;;
27977;SDS011;15314;49.248;6.968;2023-04-27T03:05:59;11.50;;;8.88;;
27977;SDS011;15314;49.248;6.968;2023-04-27T03:06:59;8.95;;;8.18;;
27977;SDS011;15314;49.248;6.968;2023-04-27T03:08:00;10.13;;;9.13;;
27977;SDS011;15314;49.248;6.968;2023-04-27T03:09:01;8.90;;;8.10;;
27977;SDS011;15314;49.248;6.968;2023-04-27T03:10:03;9.38;;;8.57;;
27977;SDS011;15314;49.248;6.968;2023-04-27T03:11:04;9.25;;;8.38;;
27977;SDS011;15314;49.248;6.968;2023-04-27T03:12:04;10.18;;;8.85;;
27977;SDS011;15314;49.248;6.968;2023-04-27T03:13:05;9.63;;;8.63;;
27977;SDS011;15314;49.248;6.968;2023-04-27T03:14:06;9.70;;;8.77;;
27977;SDS011;15314;49.248;6.968;2023-04-27T03:15:07;10.07;;;9.07;;
27977;SDS011;15314;49.248;6.968;2023-04-27T03:16:08;12.25;;;8.98;;
27977;SDS011;15314;49.248;6.968;2023-04-27T03:17:10;12.48;;;8.82;;
27977;SDS011;15314;49.248;6.968;2023-04-27T03:18:10;9.40;;;8.40;;
27977;SDS011;15314;49.248;6.968;2023-04-27T03:19:11;8.82;;;8.07;;
27977;SDS011;15314;49.248;6.968;2023-04-27T03:20:12;9.10;;;8.13;;
27977;SDS011;15314;49.248;6.968;2023-04-27T03:21:13;8.85;;;8.05;;
27977;SDS011;15314;49.248;6.968;2023-04-27T03:22:15;9.40;;;8.50;;
27977;SDS011;15314;49.248;6.968;2023-04-27T03:23:16;10.48;;;8.65;;
27977;SDS011;15314;49.248;6.968;2023-04-27T03:24:17;9.13;;;8.43;;
27977;SDS011;15314;49.248;6.968;2023-04-27T03:25:17;10.07;;;9.10;;
27977;SDS011;15314;49.248;6.968;2023-04-27T03:26:18;10.63;;;8.82;;
27977;SDS011;15314;49.248;6.968;2023-04-27T03:27:19;10.05;;;8.90;;
27977;SDS011;15314;49.248;6.968;2023-04-27T03:28:20;9.85;;;8.70;;
27977;SDS011;15314;49.248;6.968;2023-04-27T03:29:20;9.30;;;8.35;;
27977;SDS011;15314;49.248;6.968;2023-04-27T03:30:21;10.43;;;9.13;;
27977;SDS011;15314;49.248;6.968;2023-04-27T03:31:22;9.07;;;8.48;;
27977;SDS011;15314;49.248;6.968;2023-04-27T03:32:22;8.57;;;7.97;;
27977;SDS011;15314;49.248;6.968;2023-04-27T03:33:23;10.68;;;8.32;;
27977;SDS011;15314;49.248;6.968;2023-04-27T03:34:25;9.52;;;8.48;;
27977;SDS011;15314;49.248;6.968;2023-04-27T03:35:26;9.35;;;8.32;;
27977;SDS011;15314;49.248;6.968;2023-04-27T03:36:27;9.55;;;8.73;;
27977;SDS011;15314;49.248;6.968;2023-04-27T03:37:27;12.02;;;8.40;;
27977;SDS011;15314;49.248;6.968;2023-04-27T03:38:29;9.88;;;8.90;;
27977;SDS011;15314;49.248;6.968;2023-04-27T03:39:30;9.60;;;8.55;;
27977;SDS011;15314;49.248;6.968;2023-04-27T03:40:30;9.73;;;8.75;;
27977;SDS011;15314;49.248;6.968;2023-04-27T03:41:31;9.13;;;8.40;;
27977;SDS011;15314;49.248;6.968;2023-04-27T03:42:31;8.98;;;7.85;;
27977;SDS011;15314;49.248;6.968;2023-04-27T03:43:32;10.45;;;9.02;;
27977;SDS011;15314;49.248;6.968;2023-04-27T03:44:33;10.15;;;9.10;;
27977;SDS011;15314;49.248;6.968;2023-04-27T03:45:35;9.25;;;8.60;;
27977;SDS011;15314;49.248;6.968;2023-04-27T03:46:35;10.10;;;8.98;;
27977;SDS011;15314;49.248;6.968;2023-04-27T03:47:36;9.95;;;8.93;;
27977;SDS011;15314;49.248;6.968;2023-04-27T03:48:37;9.85;;;8.80;;
27977;SDS011;15314;49.248;6.968;2023-04-27T03:49:38;9.73;;;8.82;;
27977;SDS011;15314;49.248;6.968;2023-04-27T03:50:39;12.90;;;9.23;;
27977;SDS011;15314;49.248;6.968;2023-04-27T03:51:41;11.05;;;9.73;;
27977;SDS011;15314;49.248;6.968;2023-04-27T03:52:42;9.95;;;9.07;;
27977;SDS011;15314;49.248;6.968;2023-04-27T03:53:43;9.60;;;8.43;;
27977;SDS011;15314;49.248;6.968;2023-04-27T03:54:44;10.65;;;9.02;;
27977;SDS011;15314;49.248;6.968;2023-04-27T03:55:44;9.50;;;8.55;;
27977;SDS011;15314;49.248;6.968;2023-04-27T03:56:45;10.95;;;9.60;;
27977;SDS011;15314;49.248;6.968;2023-04-27T03:57:46;9.70;;;8.70;;
27977;SDS011;15314;49.248;6.968;2023-04-27T03:58:47;11.30;;;9.70;;
27977;SDS011;15314;49.248;6.968;2023-04-27T03:59:48;13.90;;;9.15;;
27977;SDS011;15314;49.248;6.968;2023-04-27T04:00:49;9.68;;;8.55;;
27977;SDS011;15314;49.248;6.968;2023-04-27T04:01:49;10.23;;;9.32;;
27977;SDS011;15314;49.248;6.968;2023-04-27T04:02:50;10.95;;;9.52;;
27977;SDS011;15314;49.248;6.968;2023-04-27T04:03:51;10.13;;;8.90;;
27977;SDS011;15314;49.248;6.968;2023-04-27T04:04:52;10.02;;;8.95;;
27977;SDS011;15314;49.248;6.968;2023-04-27T04:05:52;10.70;;;9.68;;
27977;SDS011;15314;49.248;6.968;2023-04-27T04:06:53;12.35;;;9.73;;
27977;SDS011;15314;49.248;6.968;2023-04-27T04:07:53;9.50;;;8.32;;
27977;SDS011;15314;49.248;6.968;2023-04-27T04:08:55;12.60;;;8.90;;
27977;SDS011;15314;49.248;6.968;2023-04-27T04:09:56;10.43;;;9.40;;
27977;SDS011;15314;49.248;6.968;2023-04-27T04:10:56;9.35;;;8.10;;
27977;SDS011;15314;49.248;6.968;2023-04-27T04:11:57;10.27;;;8.90;;
27977;SDS011;15314;49.248;6.968;2023-04-27T04:12:57;15.38;;;9.05;;
27977;SDS011;15314;49.248;6.968;2023-04-27T04:13:58;11.38;;;9.52;;
27977;SDS011;15314;49.248;6.968;2023-04-27T04:14:58;10.85;;;8.75;;
27977;SDS011;15314;49.248;6.968;2023-04-27T04:16:06;10.10;;;9.00;;
27977;SDS011;15314;49.248;6.968;2023-04-27T04:17:08;10.30;;;9.20;;
27977;SDS011;15314;49.248;6.968;2023-04-27T04:18:09;10.18;;;9.20;;
27977;SDS011;15314;49.248;6.968;2023-04-27T04:19:10;9.85;;;8.88;;
27977;SDS011;15314;49.248;6.968;2023-04-27T04:20:11;10.55;;;8.38;;
27977;SDS011;15314;49.248;6.968;2023-04-27T04:21:11;12.35;;;9.43;;
27977;SDS011;15314;49.248;6.968;2023-04-27T04:22:12;11.40;;;8.75;;
27977;SDS011;15314;49.248;6.968;2023-04-27T04:23:13;12.00;;;9.07;;
27977;SDS011;15314;49.248;6.968;2023-04-27T04:24:13;9.65;;;8.88;;
27977;SDS011;15314;49.248;6.968;2023-04-27T04:25:15;11.75;;;9.02;;
27977;SDS011;15314;49.248;6.968;2023-04-27T04:26:15;9.50;;;8.55;;
27977;SDS011;15314;49.248;6.968;2023-04-27T04:27:16;9.50;;;8.57;;
27977;SDS011;15314;49.248;6.968;2023-04-27T04:28:17;10.65;;;9.45;;
27977;SDS011;15314;49.248;6.968;2023-04-27T04:29:17;11.65;;;8.70;;
27977;SDS011;15314;49.248;6.968;2023-04-27T04:30:18;10.52;;;9.32;;
27977;SDS011;15314;49.248;6.968;2023-04-27T04:31:19;9.52;;;8.70;;
27977;SDS011;15314;49.248;6.968;2023-04-27T04:32:20;9.70;;;8.70;;
27977;SDS011;15314;49.248;6.968;2023-04-27T04:33:22;9.05;;;8.20;;
27977;SDS011;15314;49.248;6.968;2023-04-27T04:34:24;9.98;;;9.00;;
27977;SDS011;15314;49.248;6.968;2023-04-27T04:35:24;10.63;;;9.48;;
27977;SDS011;15314;49.248;6.968;2023-04-27T04:36:25;10.50;;;9.27;;
27977;SDS011;15314;49.248;6.968;2023-04-27T04:37:26;10.63;;;9.73;;
27977;SDS011;15314;49.248;6.968;2023-04-27T04:38:27;10.93;;;9.88;;
27977;SDS011;15314;49.248;6.968;2023-04-27T04:39:31;10.05;;;9.15;;
27977;SDS011;15314;49.248;6.968;2023-04-27T04:40:32;12.40;;;10.00;;
27977;SDS011;15314;49.248;6.968;2023-04-27T04:41:32;12.02;;;9.55;;
27977;SDS011;15314;49.248;6.968;2023-04-27T04:42:34;13.77;;;9.98;;
27977;SDS011;15314;49.248;6.968;2023-04-27T04:43:36;11.30;;;10.25;;
27977;SDS011;15314;49.248;6.968;2023-04-27T04:44:36;10.52;;;9.43;;
27977;SDS011;15314;49.248;6.968;2023-04-27T04:45:37;12.02;;;10.80;;
27977;SDS011;15314;49.248;6.968;2023-04-27T04:46:38;13.45;;;10.80;;
27977;SDS011;15314;49.248;6.968;2023-04-27T04:47:39;12.77;;;10.68;;
27977;SDS011;15314;49.248;6.968;2023-04-27T04:48:40;15.18;;;10.38;;
27977;SDS011;15314;49.248;6.968;2023-04-27T04:49:41;12.00;;;10.35;;
27977;SDS011;15314;49.248;6.968;2023-04-27T04:50:41;11.70;;;10.55;;
27977;SDS011;15314;49.248;6.968;2023-04-27T04:51:42;11.05;;;10.02;;
27977;SDS011;15314;49.248;6.968;2023-04-27T04:52:43;14.50;;;10.75;;
27977;SDS011;15314;49.248;6.968;2023-04-27T04:53:44;12.32;;;10.20;;
27977;SDS011;15314;49.248;6.968;2023-04-27T04:54:45;10.95;;;9.95;;
27977;SDS011;15314;49.248;6.968;2023-04-27T04:55:45;11.40;;;10.30;;
27977;SDS011;15314;49.248;6.968;2023-04-27T04:56:46;11.23;;;9.85;;
27977;SDS011;15314;49.248;6.968;2023-04-27T04:57:47;11.43;;;10.52;;
27977;SDS011;15314;49.248;6.968;2023-04-27T04:58:48;11.48;;;10.38;;
27977;SDS011;15314;49.248;6.968;2023-04-27T04:59:48;11.00;;;9.90;;
27977;SDS011;15314;49.248;6.968;2023-04-27T05:00:49;12.70;;;10.30;;
27977;SDS011;15314;49.248;6.968;2023-04-27T05:01:50;10.82;;;9.82;;
27977;SDS011;15314;49.248;6.968;2023-04-27T05:02:54;13.00;;;11.68;;
27977;SDS011;15314;49.248;6.968;2023-04-27T05:03:55;12.80;;;11.52;;
27977;SDS011;15314;49.248;6.968;2023-04-27T05:04:55;11.70;;;10.38;;
27977;SDS011;15314;49.248;6.968;2023-04-27T05:05:56;11.60;;;10.43;;
27977;SDS011;15314;49.248;6.968;2023-04-27T05:06:57;11.30;;;10.13;;
27977;SDS011;15314;49.248;6.968;2023-04-27T05:07:59;12.40;;;10.55;;
27977;SDS011;15314;49.248;6.968;2023-04-27T05:08:59;11.48;;;10.48;;
27977;SDS011;15314;49.248;6.968;2023-04-27T05:10:00;11.65;;;10.55;;
27977;SDS011;15314;49.248;6.968;2023-04-27T05:11:01;12.35;;;11.13;;
27977;SDS011;15314;49.248;6.968;2023-04-27T05:12:01;11.93;;;10.85;;
27977;SDS011;15314;49.248;6.968;2023-04-27T05:13:02;11.07;;;10.05;;
27977;SDS011;15314;49.248;6.968;2023-04-27T05:14:03;11.60;;;10.52;;
27977;SDS011;15314;49.248;6.968;2023-04-27T05:15:03;12.00;;;10.88;;
27977;SDS011;15314;49.248;6.968;2023-04-27T05:16:05;11.63;;;10.23;;
27977;SDS011;15314;49.248;6.968;2023-04-27T05:17:06;10.95;;;9.88;;
27977;SDS011;15314;49.248;6.968;2023-04-27T05:18:07;14.48;;;10.82;;
27977;SDS011;15314;49.248;6.968;2023-04-27T05:19:07;11.75;;;9.88;;
27977;SDS011;15314;49.248;6.968;2023-04-27T05:20:08;13.32;;;9.90;;
27977;SDS011;15314;49.248;6.968;2023-04-27T05:21:16;13.13;;;11.07;;
27977;SDS011;15314;49.248;6.968;2023-04-27T05:22:19;12.43;;;10.82;;
27977;SDS011;15314;49.248;6.968;2023-04-27T05:23:20;10.80;;;9.82;;
27977;SDS011;15314;49.248;6.968;2023-04-27T05:24:20;12.45;;;10.50;;
27977;SDS011;15314;49.248;6.968;2023-04-27T05:25:21;12.00;;;10.82;;
27977;SDS011;15314;49.248;6.968;2023-04-27T05:26:22;10.65;;;9.70;;
27977;SDS011;15314;49.248;6.968;2023-04-27T05:27:22;18.85;;;11.50;;
27977;SDS011;15314;49.248;6.968;2023-04-27T05:28:23;12.55;;;11.27;;
27977;SDS011;15314;49.248;6.968;2023-04-27T05:29:24;12.68;;;11.38;;
27977;SDS011;15314;49.248;6.968;2023-04-27T05:30:26;12.20;;;11.02;;
27977;SDS011;15314;49.248;6.968;2023-04-27T05:31:26;11.25;;;10.30;;
27977;SDS011;15314;49.248;6.968;2023-04-27T05:32:27;13.77;;;9.93;;
27977;SDS011;15314;49.248;6.968;2023-04-27T05:33:28;10.95;;;9.85;;
27977;SDS011;15314;49.248;6.968;2023-04-27T05:34:28;13.68;;;11.77;;
27977;SDS011;15314;49.248;6.968;2023-04-27T05:35:29;12.65;;;11.45;;
27977;SDS011;15314;49.248;6.968;2023-04-27T05:36:30;12.10;;;11.07;;
27977;SDS011;15314;49.248;6.968;2023-04-27T05:37:31;11.85;;;10.88;;
27977;SDS011;15314;49.248;6.968;2023-04-27T05:38:31;14.57;;;11.43;;
27977;SDS011;15314;49.248;6.968;2023-04-27T05:39:33;14.10;;;11.85;;
27977;SDS011;15314;49.248;6.968;2023-04-27T05:40:34;11.85;;;10.80;;
27977;SDS011;15314;49.248;6.968;2023-04-27T05:41:35;12.13;;;11.07;;
27977;SDS011;15314;49.248;6.968;2023-04-27T05:42:35;11.80;;;10.90;;
27977;SDS011;15314;49.248;6.968;2023-04-27T05:43:36;11.85;;;10.75;;
27977;SDS011;15314;49.248;6.968;2023-04-27T05:44:37;12.23;;;11.05;;
27977;SDS011;15314;49.248;6.968;2023-04-27T05:45:38;11.75;;;10.82;;
27977;SDS011;15314;49.248;6.968;2023-04-27T05:46:40;11.70;;;9.77;;
27977;SDS011;15314;49.248;6.968;2023-04-27T05:47:40;11.32;;;10.45;;
27977;SDS011;15314;49.248;6.968;2023-04-27T05:48:41;11.40;;;10.40;;
27977;SDS011;15314;49.248;6.968;2023-04-27T05:49:42;11.45;;;10.48;;
27977;SDS011;15314;49.248;6.968;2023-04-27T05:50:43;11.25;;;10.40;;
27977;SDS011;15314;49.248;6.968;2023-04-27T05:51:43;14.68;;;11.00;;
27977;SDS011;15314;49.248;6.968;2023-04-27T05:52:44;11.50;;;10.48;;
27977;SDS011;15314;49.248;6.968;2023-04-27T05:53:45;11.32;;;10.23;;
27977;SDS011;15314;49.248;6.968;2023-04-27T05:54:46;11.50;;;10.43;;
27977;SDS011;15314;49.248;6.968;2023-04-27T05:55:47;11.45;;;10.25;;
27977;SDS011;15314;49.248;6.968;2023-04-27T05:56:48;12.20;;;10.93;;
27977;SDS011;15314;49.248;6.968;2023-04-27T05:57:49;14.57;;;11.15;;
27977;SDS011;15314;49.248;6.968;2023-04-27T05:58:49;12.13;;;10.20;;
27977;SDS011;15314;49.248;6.968;2023-04-27T05:59:51;11.07;;;10.02;;
27977;SDS011;15314;49.248;6.968;2023-04-27T06:00:52;14.65;;;11.93;;
27977;SDS011;15314;49.248;6.968;2023-04-27T06:01:53;11.73;;;10.63;;
27977;SDS011;15314;49.248;6.968;2023-04-27T06:02:54;11.77;;;10.77;;